sensor_id;sensor_type;location;lat;lon;timestamp;pressure;altitude;pressure_sealevel;temperature;humidity
12054;BME280;5638;50.860;4.698;2022-10-13T00:00:44;101562.50;;;14.69;nan
12054;BME280;5638;50.860;4.698;2022-10-13T00:03:11;101549.63;;;14.61;nan
12054;BME280;5638;50.860;4.698;2022-10-13T00:05:43;101548.72;;;14.64;nan
12054;BME280;5638;50.860;4.698;2022-10-13T00:08:11;101547.88;;;14.62;nan
12054;BME280;5638;50.860;4.698;2022-10-13T00:10:39;101548.75;;;14.61;nan
12054;BME280;5638;50.860;4.698;2022-10-13T00:13:07;101545.31;;;14.59;nan
12054;BME280;5638;50.860;4.698;2022-10-13T00:15:42;101538.22;;;14.67;nan
12054;BME280;5638;50.860;4.698;2022-10-13T00:18:08;101533.94;;;14.63;nan
12054;BME280;5638;50.860;4.698;2022-10-13T00:20:35;101540.50;;;14.82;nan
12054;BME280;5638;50.860;4.698;2022-10-13T00:23:01;101533.09;;;14.62;nan
12054;BME280;5638;50.860;4.698;2022-10-13T00:25:26;101529.88;;;14.50;nan
12054;BME280;5638;50.860;4.698;2022-10-13T00:27:52;101536.63;;;14.60;nan
12054;BME280;5638;50.860;4.698;2022-10-13T00:30:18;101532.25;;;14.62;nan
12054;BME280;5638;50.860;4.698;2022-10-13T00:32:44;101525.47;;;14.55;nan
12054;BME280;5638;50.860;4.698;2022-10-13T00:35:10;101534.25;;;14.46;nan
12054;BME280;5638;50.860;4.698;2022-10-13T00:37:35;101527.94;;;14.61;nan
12054;BME280;5638;50.860;4.698;2022-10-13T00:40:01;101533.38;;;14.49;nan
12054;BME280;5638;50.860;4.698;2022-10-13T00:42:28;101526.56;;;14.40;nan
12054;BME280;5638;50.860;4.698;2022-10-13T00:45:25;101537.53;;;14.57;nan
12054;BME280;5638;50.860;4.698;2022-10-13T00:47:59;101519.56;;;14.43;nan
12054;BME280;5638;50.860;4.698;2022-10-13T00:50:39;101529.84;;;14.53;nan
12054;BME280;5638;50.860;4.698;2022-10-13T00:53:07;101535.03;;;14.53;nan
12054;BME280;5638;50.860;4.698;2022-10-13T00:55:37;101532.28;;;14.59;nan
12054;BME280;5638;50.860;4.698;2022-10-13T00:58:07;101534.97;;;14.56;nan
12054;BME280;5638;50.860;4.698;2022-10-13T01:00:34;101535.78;;;14.58;nan
12054;BME280;5638;50.860;4.698;2022-10-13T01:03:01;101529.63;;;14.62;nan
12054;BME280;5638;50.860;4.698;2022-10-13T01:05:28;101539.81;;;14.74;nan
12054;BME280;5638;50.860;4.698;2022-10-13T01:07:56;101526.22;;;14.60;nan
12054;BME280;5638;50.860;4.698;2022-10-13T01:21:54;101537.53;;;14.57;nan
12054;BME280;5638;50.860;4.698;2022-10-13T01:24:51;101534.97;;;14.56;nan
12054;BME280;5638;50.860;4.698;2022-10-13T01:31:18;101521.88;;;14.59;nan
12054;BME280;5638;50.860;4.698;2022-10-13T01:37:25;101520.22;;;14.56;nan
12054;BME280;5638;50.860;4.698;2022-10-13T01:43:26;101495.84;;;14.59;nan
12054;BME280;5638;50.860;4.698;2022-10-13T01:46:06;101503.59;;;14.63;nan
12054;BME280;5638;50.860;4.698;2022-10-13T01:48:37;101503.66;;;14.59;nan
12054;BME280;5638;50.860;4.698;2022-10-13T01:51:08;101492.59;;;14.46;nan
12054;BME280;5638;50.860;4.698;2022-10-13T01:53:36;101475.41;;;14.37;nan
12054;BME280;5638;50.860;4.698;2022-10-13T01:56:03;101494.38;;;14.44;nan
12054;BME280;5638;50.860;4.698;2022-10-13T01:58:34;101491.75;;;14.45;nan
12054;BME280;5638;50.860;4.698;2022-10-13T02:01:31;101489.66;;;14.64;nan
12054;BME280;5638;50.860;4.698;2022-10-13T02:07:31;101474.56;;;14.80;nan
12054;BME280;5638;50.860;4.698;2022-10-13T02:12:56;101445.72;;;14.49;nan
12054;BME280;5638;50.860;4.698;2022-10-13T02:15:31;101473.34;;;14.56;nan
12054;BME280;5638;50.860;4.698;2022-10-13T02:18:00;101465.22;;;14.70;nan
12054;BME280;5638;50.860;4.698;2022-10-13T02:20:28;101448.84;;;14.65;nan
12054;BME280;5638;50.860;4.698;2022-10-13T02:22:59;101452.34;;;14.64;nan
12054;BME280;5638;50.860;4.698;2022-10-13T02:25:28;101458.53;;;14.58;nan
12054;BME280;5638;50.860;4.698;2022-10-13T02:27:59;101444.88;;;14.47;nan
12054;BME280;5638;50.860;4.698;2022-10-13T02:30:28;101444.75;;;14.55;nan
12054;BME280;5638;50.860;4.698;2022-10-13T02:32:54;101448.22;;;14.54;nan
12054;BME280;5638;50.860;4.698;2022-10-13T02:35:20;101445.59;;;14.54;nan
12054;BME280;5638;50.860;4.698;2022-10-13T02:37:46;101456.78;;;14.59;nan
12054;BME280;5638;50.860;4.698;2022-10-13T02:40:12;101454.28;;;14.54;nan
12054;BME280;5638;50.860;4.698;2022-10-13T02:42:38;101439.66;;;14.45;nan
12054;BME280;5638;50.860;4.698;2022-10-13T02:45:05;101449.94;;;14.55;nan
12054;BME280;5638;50.860;4.698;2022-10-13T02:47:31;101448.19;;;14.55;nan
12054;BME280;5638;50.860;4.698;2022-10-13T02:49:57;101436.84;;;14.58;nan
12054;BME280;5638;50.860;4.698;2022-10-13T02:52:23;101457.56;;;14.64;nan
12054;BME280;5638;50.860;4.698;2022-10-13T02:54:49;101447.94;;;14.66;nan
12054;BME280;5638;50.860;4.698;2022-10-13T02:57:16;101451.41;;;14.68;nan
12054;BME280;5638;50.860;4.698;2022-10-13T02:59:42;101440.13;;;14.67;nan
12054;BME280;5638;50.860;4.698;2022-10-13T03:02:08;101450.44;;;14.70;nan
12054;BME280;5638;50.860;4.698;2022-10-13T03:04:34;101445.19;;;14.74;nan
12054;BME280;5638;50.860;4.698;2022-10-13T03:07:00;101445.13;;;14.75;nan
12054;BME280;5638;50.860;4.698;2022-10-13T03:09:26;101446.09;;;14.71;nan
12054;BME280;5638;50.860;4.698;2022-10-13T03:11:52;101440.03;;;14.70;nan
12054;BME280;5638;50.860;4.698;2022-10-13T03:14:18;101436.63;;;14.67;nan
12054;BME280;5638;50.860;4.698;2022-10-13T03:16:44;101442.72;;;14.67;nan
12054;BME280;5638;50.860;4.698;2022-10-13T03:19:10;101437.56;;;14.64;nan
12054;BME280;5638;50.860;4.698;2022-10-13T03:21:38;101450.63;;;14.63;nan
12054;BME280;5638;50.860;4.698;2022-10-13T03:24:04;101447.34;;;14.55;nan
12054;BME280;5638;50.860;4.698;2022-10-13T03:26:33;101451.56;;;14.59;nan
12054;BME280;5638;50.860;4.698;2022-10-13T03:29:00;101443.84;;;14.56;nan
12054;BME280;5638;50.860;4.698;2022-10-13T03:31:26;101443.75;;;14.60;nan
12054;BME280;5638;50.860;4.698;2022-10-13T03:33:52;101438.50;;;14.62;nan
12054;BME280;5638;50.860;4.698;2022-10-13T03:36:18;101443.00;;;14.55;nan
12054;BME280;5638;50.860;4.698;2022-10-13T03:38:43;101441.94;;;14.62;nan
12054;BME280;5638;50.860;4.698;2022-10-13T03:41:16;101443.59;;;14.68;nan
12054;BME280;5638;50.860;4.698;2022-10-13T03:43:43;101433.06;;;14.73;nan
12054;BME280;5638;50.860;4.698;2022-10-13T03:46:12;101429.66;;;14.69;nan
12054;BME280;5638;50.860;4.698;2022-10-13T03:48:39;101434.38;;;14.90;nan
12054;BME280;5638;50.860;4.698;2022-10-13T03:51:07;101430.41;;;14.74;nan
12054;BME280;5638;50.860;4.698;2022-10-13T03:53:34;101433.84;;;14.76;nan
12054;BME280;5638;50.860;4.698;2022-10-13T03:56:00;101434.81;;;14.72;nan
12054;BME280;5638;50.860;4.698;2022-10-13T03:58:26;101421.13;;;14.62;nan
12054;BME280;5638;50.860;4.698;2022-10-13T04:00:56;101408.13;;;14.61;nan
12054;BME280;5638;50.860;4.698;2022-10-13T04:03:22;101420.25;;;14.62;nan
12054;BME280;5638;50.860;4.698;2022-10-13T04:05:49;101408.78;;;14.30;nan
12054;BME280;5638;50.860;4.698;2022-10-13T04:08:15;101395.84;;;14.26;nan
12054;BME280;5638;50.860;4.698;2022-10-13T04:10:41;101400.72;;;14.41;nan
12054;BME280;5638;50.860;4.698;2022-10-13T04:13:07;101401.47;;;14.48;nan
12054;BME280;5638;50.860;4.698;2022-10-13T04:15:38;101403.38;;;14.38;nan
12054;BME280;5638;50.860;4.698;2022-10-13T04:18:06;101400.06;;;14.31;nan
12054;BME280;5638;50.860;4.698;2022-10-13T04:20:37;101391.03;;;14.48;nan
12054;BME280;5638;50.860;4.698;2022-10-13T04:23:04;101393.75;;;14.41;nan
12054;BME280;5638;50.860;4.698;2022-10-13T04:25:29;101386.03;;;14.38;nan
12054;BME280;5638;50.860;4.698;2022-10-13T04:27:55;101392.78;;;14.49;nan
12054;BME280;5638;50.860;4.698;2022-10-13T04:30:21;101383.66;;;14.28;nan
12054;BME280;5638;50.860;4.698;2022-10-13T04:32:47;101388.91;;;14.26;nan
12054;BME280;5638;50.860;4.698;2022-10-13T04:35:13;101377.75;;;14.19;nan
12054;BME280;5638;50.860;4.698;2022-10-13T04:37:38;101384.34;;;14.36;nan
12054;BME280;5638;50.860;4.698;2022-10-13T04:40:05;101374.75;;;14.38;nan
12054;BME280;5638;50.860;4.698;2022-10-13T04:42:31;101378.88;;;14.48;nan
12054;BME280;5638;50.860;4.698;2022-10-13T04:44:56;101371.19;;;14.43;nan
12054;BME280;5638;50.860;4.698;2022-10-13T04:47:22;101365.22;;;14.38;nan
12054;BME280;5638;50.860;4.698;2022-10-13T04:49:48;101377.97;;;14.52;nan
12054;BME280;5638;50.860;4.698;2022-10-13T04:52:14;101380.59;;;14.51;nan
12054;BME280;5638;50.860;4.698;2022-10-13T04:54:40;101375.25;;;14.57;nan
12054;BME280;5638;50.860;4.698;2022-10-13T04:57:06;101369.81;;;14.66;nan
12054;BME280;5638;50.860;4.698;2022-10-13T04:59:32;101362.97;;;14.62;nan
12054;BME280;5638;50.860;4.698;2022-10-13T05:01:58;101353.50;;;14.58;nan
12054;BME280;5638;50.860;4.698;2022-10-13T05:04:24;101360.53;;;14.56;nan
12054;BME280;5638;50.860;4.698;2022-10-13T05:06:50;101343.50;;;14.39;nan
12054;BME280;5638;50.860;4.698;2022-10-13T05:09:15;101363.31;;;14.47;nan
12054;BME280;5638;50.860;4.698;2022-10-13T05:11:41;101347.84;;;14.39;nan
12054;BME280;5638;50.860;4.698;2022-10-13T05:14:07;101352.81;;;14.50;nan
12054;BME280;5638;50.860;4.698;2022-10-13T05:16:33;101370.88;;;14.57;nan
12054;BME280;5638;50.860;4.698;2022-10-13T05:18:59;101366.69;;;14.50;nan
12054;BME280;5638;50.860;4.698;2022-10-13T05:21:27;101365.84;;;14.48;nan
12054;BME280;5638;50.860;4.698;2022-10-13T05:23:56;101354.72;;;14.41;nan
12054;BME280;5638;50.860;4.698;2022-10-13T05:26:26;101361.66;;;14.42;nan
12054;BME280;5638;50.860;4.698;2022-10-13T05:28:58;101364.66;;;14.64;nan
12054;BME280;5638;50.860;4.698;2022-10-13T05:31:27;101366.63;;;14.55;nan
12054;BME280;5638;50.860;4.698;2022-10-13T05:33:54;101366.53;;;14.59;nan
12054;BME280;5638;50.860;4.698;2022-10-13T05:36:34;101357.00;;;14.57;nan
12054;BME280;5638;50.860;4.698;2022-10-13T05:39:05;101366.56;;;14.56;nan
12054;BME280;5638;50.860;4.698;2022-10-13T05:41:32;101355.38;;;14.53;nan
12054;BME280;5638;50.860;4.698;2022-10-13T05:44:02;101359.78;;;14.51;nan
12054;BME280;5638;50.860;4.698;2022-10-13T05:46:29;101361.50;;;14.50;nan
12054;BME280;5638;50.860;4.698;2022-10-13T05:48:55;101356.97;;;14.58;nan
12054;BME280;5638;50.860;4.698;2022-10-13T05:51:33;101353.66;;;14.52;nan
12054;BME280;5638;50.860;4.698;2022-10-13T05:54:11;101336.50;;;14.41;nan
12054;BME280;5638;50.860;4.698;2022-10-13T05:56:54;101358.09;;;14.47;nan
12054;BME280;5638;50.860;4.698;2022-10-13T05:59:23;101335.69;;;14.39;nan
12054;BME280;5638;50.860;4.698;2022-10-13T06:01:50;101341.56;;;14.49;nan
12054;BME280;5638;50.860;4.698;2022-10-13T06:04:23;101340.59;;;14.53;nan
12054;BME280;5638;50.860;4.698;2022-10-13T06:06:51;101330.06;;;14.58;nan
12054;BME280;5638;50.860;4.698;2022-10-13T06:09:17;101339.31;;;14.71;nan
12054;BME280;5638;50.860;4.698;2022-10-13T06:11:43;101338.50;;;14.69;nan
12054;BME280;5638;50.860;4.698;2022-10-13T06:14:09;101334.31;;;14.63;nan
12054;BME280;5638;50.860;4.698;2022-10-13T06:16:35;101347.28;;;14.65;nan
12054;BME280;5638;50.860;4.698;2022-10-13T06:19:03;101343.78;;;14.66;nan
12054;BME280;5638;50.860;4.698;2022-10-13T06:21:29;101348.00;;;14.72;nan
12054;BME280;5638;50.860;4.698;2022-10-13T06:23:55;101338.63;;;14.64;nan
12054;BME280;5638;50.860;4.698;2022-10-13T06:26:21;101339.47;;;14.65;nan
12054;BME280;5638;50.860;4.698;2022-10-13T06:28:47;101323.31;;;14.51;nan
12054;BME280;5638;50.860;4.698;2022-10-13T06:31:13;101334.59;;;14.51;nan
12054;BME280;5638;50.860;4.698;2022-10-13T06:33:38;101344.97;;;14.53;nan
12054;BME280;5638;50.860;4.698;2022-10-13T06:36:05;101337.88;;;14.58;nan
12054;BME280;5638;50.860;4.698;2022-10-13T06:38:32;101340.59;;;14.55;nan
12054;BME280;5638;50.860;4.698;2022-10-13T06:41:00;101340.50;;;14.58;nan
12054;BME280;5638;50.860;4.698;2022-10-13T06:43:26;101338.03;;;14.52;nan
12054;BME280;5638;50.860;4.698;2022-10-13T06:45:52;101337.19;;;14.51;nan
12054;BME280;5638;50.860;4.698;2022-10-13T06:48:18;101336.34;;;14.51;nan
12054;BME280;5638;50.860;4.698;2022-10-13T06:50:44;101342.19;;;14.59;nan
12054;BME280;5638;50.860;4.698;2022-10-13T06:53:10;101342.00;;;14.68;nan
12054;BME280;5638;50.860;4.698;2022-10-13T06:55:35;101332.41;;;14.70;nan
12054;BME280;5638;50.860;4.698;2022-10-13T06:58:01;101346.94;;;14.80;nan
12054;BME280;5638;50.860;4.698;2022-10-13T07:00:27;101338.34;;;14.75;nan
12054;BME280;5638;50.860;4.698;2022-10-13T07:02:53;101333.13;;;14.75;nan
12054;BME280;5638;50.860;4.698;2022-10-13T07:05:19;101331.31;;;14.80;nan
12054;BME280;5638;50.860;4.698;2022-10-13T07:07:45;101318.28;;;14.79;nan
12054;BME280;5638;50.860;4.698;2022-10-13T07:10:11;101342.53;;;14.82;nan
12054;BME280;5638;50.860;4.698;2022-10-13T07:12:36;101325.81;;;14.55;nan
12054;BME280;5638;50.860;4.698;2022-10-13T07:15:03;101326.34;;;14.69;nan
12054;BME280;5638;50.860;4.698;2022-10-13T07:17:29;101311.94;;;14.55;nan
12054;BME280;5638;50.860;4.698;2022-10-13T07:19:55;101336.72;;;14.71;nan
12054;BME280;5638;50.860;4.698;2022-10-13T07:22:20;101299.78;;;14.54;nan
12054;BME280;5638;50.860;4.698;2022-10-13T07:24:46;101319.25;;;14.75;nan
12054;BME280;5638;50.860;4.698;2022-10-13T07:27:12;101319.00;;;14.85;nan
12054;BME280;5638;50.860;4.698;2022-10-13T07:29:38;101313.19;;;14.76;nan
12054;BME280;5638;50.860;4.698;2022-10-13T07:32:04;101323.28;;;14.88;nan
12054;BME280;5638;50.860;4.698;2022-10-13T07:34:30;101313.81;;;14.84;nan
12054;BME280;5638;50.860;4.698;2022-10-13T07:36:56;101315.66;;;14.80;nan
12054;BME280;5638;50.860;4.698;2022-10-13T07:39:22;101325.88;;;14.89;nan
12054;BME280;5638;50.860;4.698;2022-10-13T07:41:48;101328.41;;;14.91;nan
12054;BME280;5638;50.860;4.698;2022-10-13T07:44:14;101317.88;;;14.95;nan
12054;BME280;5638;50.860;4.698;2022-10-13T07:46:40;101338.59;;;15.02;nan
12054;BME280;5638;50.860;4.698;2022-10-13T07:49:06;101341.22;;;15.00;nan
12054;BME280;5638;50.860;4.698;2022-10-13T07:51:31;101340.25;;;15.04;nan
12054;BME280;5638;50.860;4.698;2022-10-13T07:53:57;101337.88;;;14.95;nan
12054;BME280;5638;50.860;4.698;2022-10-13T07:56:23;101347.31;;;14.99;nan
12054;BME280;5638;50.860;4.698;2022-10-13T07:58:49;101332.63;;;14.97;nan
12054;BME280;5638;50.860;4.698;2022-10-13T08:01:15;101325.88;;;14.89;nan
12054;BME280;5638;50.860;4.698;2022-10-13T08:03:42;101329.97;;;14.98;nan
12054;BME280;5638;50.860;4.698;2022-10-13T08:06:08;101327.63;;;14.87;nan
12054;BME280;5638;50.860;4.698;2022-10-13T08:08:34;101308.00;;;14.74;nan
12054;BME280;5638;50.860;4.698;2022-10-13T08:11:11;101316.47;;;14.82;nan
12054;BME280;5638;50.860;4.698;2022-10-13T08:13:37;101313.19;;;14.76;nan
12054;BME280;5638;50.860;4.698;2022-10-13T08:16:03;101319.91;;;14.84;nan
12054;BME280;5638;50.860;4.698;2022-10-13T08:18:30;101311.16;;;14.87;nan
12054;BME280;5638;50.860;4.698;2022-10-13T08:21:00;101306.00;;;14.84;nan
12054;BME280;5638;50.860;4.698;2022-10-13T08:23:28;101321.97;;;15.06;nan
12054;BME280;5638;50.860;4.698;2022-10-13T08:25:54;101309.81;;;15.05;nan
12054;BME280;5638;50.860;4.698;2022-10-13T08:28:24;101305.50;;;15.04;nan
12054;BME280;5638;50.860;4.698;2022-10-13T08:30:51;101328.72;;;15.13;nan
12054;BME280;5638;50.860;4.698;2022-10-13T08:33:24;101321.13;;;15.05;nan
12054;BME280;5638;50.860;4.698;2022-10-13T08:35:50;101297.78;;;15.01;nan
12054;BME280;5638;50.860;4.698;2022-10-13T08:38:16;101306.34;;;15.06;nan
12054;BME280;5638;50.860;4.698;2022-10-13T08:40:50;101304.75;;;15.33;nan
12054;BME280;5638;50.860;4.698;2022-10-13T08:43:20;101300.81;;;15.18;nan
12054;BME280;5638;50.860;4.698;2022-10-13T08:45:56;101297.63;;;15.07;nan
12054;BME280;5638;50.860;4.698;2022-10-13T08:48:38;101292.16;;;15.17;nan
12054;BME280;5638;50.860;4.698;2022-10-13T08:51:07;101307.88;;;15.13;nan
12054;BME280;5638;50.860;4.698;2022-10-13T08:53:40;101307.88;;;15.13;nan
12054;BME280;5638;50.860;4.698;2022-10-13T08:56:26;101305.13;;;15.19;nan
12054;BME280;5638;50.860;4.698;2022-10-13T08:58:55;101288.44;;;15.26;nan
12054;BME280;5638;50.860;4.698;2022-10-13T09:01:31;101286.47;;;15.34;nan
12054;BME280;5638;50.860;4.698;2022-10-13T09:09:36;101289.72;;;15.42;nan
12054;BME280;5638;50.860;4.698;2022-10-13T09:12:04;101284.38;;;15.47;nan
12054;BME280;5638;50.860;4.698;2022-10-13T09:14:36;101291.09;;;15.56;nan
12054;BME280;5638;50.860;4.698;2022-10-13T09:19:42;101278.19;;;15.51;nan
12054;BME280;5638;50.860;4.698;2022-10-13T09:22:18;101287.00;;;15.78;nan
12054;BME280;5638;50.860;4.698;2022-10-13T09:24:46;101279.69;;;15.60;nan
12054;BME280;5638;50.860;4.698;2022-10-13T09:27:16;101277.81;;;15.65;nan
12054;BME280;5638;50.860;4.698;2022-10-13T09:29:43;101282.13;;;15.66;nan
12054;BME280;5638;50.860;4.698;2022-10-13T09:32:21;101270.78;;;15.67;nan
12054;BME280;5638;50.860;4.698;2022-10-13T09:34:50;101256.75;;;15.73;nan
12054;BME280;5638;50.860;4.698;2022-10-13T09:37:24;101267.63;;;15.87;nan
12054;BME280;5638;50.860;4.698;2022-10-13T09:40:15;101266.75;;;15.86;nan
12054;BME280;5638;50.860;4.698;2022-10-13T09:42:51;101268.81;;;16.05;nan
12054;BME280;5638;50.860;4.698;2022-10-13T09:45:20;101273.06;;;15.79;nan
12054;BME280;5638;50.860;4.698;2022-10-13T09:47:55;101271.34;;;15.78;nan
12054;BME280;5638;50.860;4.698;2022-10-13T09:50:28;101274.94;;;15.74;nan
12054;BME280;5638;50.860;4.698;2022-10-13T09:55:41;101270.31;;;15.84;nan
12054;BME280;5638;50.860;4.698;2022-10-13T09:58:28;101255.41;;;15.87;nan
12054;BME280;5638;50.860;4.698;2022-10-13T10:00:57;101264.78;;;15.94;nan
12054;BME280;5638;50.860;4.698;2022-10-13T10:03:35;101255.88;;;16.02;nan
12054;BME280;5638;50.860;4.698;2022-10-13T10:06:11;101252.66;;;15.92;nan
12054;BME280;5638;50.860;4.698;2022-10-13T10:09:09;101254.19;;;15.99;nan
12054;BME280;5638;50.860;4.698;2022-10-13T10:11:46;101259.84;;;16.13;nan
12054;BME280;5638;50.860;4.698;2022-10-13T10:14:30;101258.81;;;16.19;nan
12054;BME280;5638;50.860;4.698;2022-10-13T10:23:18;101252.09;;;16.38;nan
12054;BME280;5638;50.860;4.698;2022-10-13T10:25:57;101244.38;;;16.35;nan
12054;BME280;5638;50.860;4.698;2022-10-13T10:28:33;101245.91;;;16.41;nan
12054;BME280;5638;50.860;4.698;2022-10-13T10:37:19;101254.81;;;16.62;nan
12054;BME280;5638;50.860;4.698;2022-10-13T10:46:01;101249.28;;;16.71;nan
12054;BME280;5638;50.860;4.698;2022-10-13T10:48:38;101256.34;;;16.69;nan
12054;BME280;5638;50.860;4.698;2022-10-13T10:51:10;101261.88;;;16.60;nan
12054;BME280;5638;50.860;4.698;2022-10-13T10:53:53;101275.25;;;16.49;nan
12054;BME280;5638;50.860;4.698;2022-10-13T10:56:29;101275.50;;;16.41;nan
12054;BME280;5638;50.860;4.698;2022-10-13T10:59:24;101278.13;;;16.41;nan
12054;BME280;5638;50.860;4.698;2022-10-13T11:17:28;101256.72;;;16.30;nan
12054;BME280;5638;50.860;4.698;2022-10-13T11:19:56;101253.44;;;16.24;nan
12054;BME280;5638;50.860;4.698;2022-10-13T11:22:28;101241.56;;;16.13;nan
12054;BME280;5638;50.860;4.698;2022-10-13T11:27:55;101253.44;;;16.24;nan
12054;BME280;5638;50.860;4.698;2022-10-13T11:30:44;101253.53;;;16.21;nan
12054;BME280;5638;50.860;4.698;2022-10-13T11:36:38;101247.53;;;16.18;nan
12054;BME280;5638;50.860;4.698;2022-10-13T11:42:08;101238.22;;;16.10;nan
12054;BME280;5638;50.860;4.698;2022-10-13T11:45:01;101235.22;;;15.94;nan
12054;BME280;5638;50.860;4.698;2022-10-13T11:48:28;101236.22;;;15.90;nan
12054;BME280;5638;50.860;4.698;2022-10-13T11:56:52;101224.38;;;15.78;nan
12054;BME280;5638;50.860;4.698;2022-10-13T11:59:34;101222.78;;;15.74;nan
12054;BME280;5638;50.860;4.698;2022-10-13T12:04:35;101215.63;;;15.81;nan
12054;BME280;5638;50.860;4.698;2022-10-13T12:07:06;101216.50;;;15.80;nan
12054;BME280;5638;50.860;4.698;2022-10-13T12:09:39;101209.41;;;15.85;nan
12054;BME280;5638;50.860;4.698;2022-10-13T12:12:16;101211.19;;;15.83;nan
12054;BME280;5638;50.860;4.698;2022-10-13T12:14:46;101203.44;;;15.81;nan
12054;BME280;5638;50.860;4.698;2022-10-13T12:17:32;101209.97;;;15.94;nan
12054;BME280;5638;50.860;4.698;2022-10-13T12:20:28;101214.81;;;16.07;nan
12054;BME280;5638;50.860;4.698;2022-10-13T12:22:55;101210.44;;;16.07;nan
12054;BME280;5638;50.860;4.698;2022-10-13T12:25:25;101204.22;;;16.11;nan
12054;BME280;5638;50.860;4.698;2022-10-13T12:27:56;101199.84;;;16.12;nan
12054;BME280;5638;50.860;4.698;2022-10-13T12:30:33;101207.84;;;16.34;nan
12054;BME280;5638;50.860;4.698;2022-10-13T12:36:16;101199.56;;;16.74;nan
12054;BME280;5638;50.860;4.698;2022-10-13T12:38:50;101184.56;;;16.81;nan
12054;BME280;5638;50.860;4.698;2022-10-13T12:41:24;101185.00;;;16.92;nan
12054;BME280;5638;50.860;4.698;2022-10-13T12:43:52;101194.59;;;17.16;nan
12054;BME280;5638;50.860;4.698;2022-10-13T12:49:30;101199.00;;;17.39;nan
12054;BME280;5638;50.860;4.698;2022-10-13T12:54:36;101191.78;;;17.68;nan
12054;BME280;5638;50.860;4.698;2022-10-13T12:57:16;101188.38;;;17.66;nan
12054;BME280;5638;50.860;4.698;2022-10-13T12:59:43;101186.78;;;17.62;nan
12054;BME280;5638;50.860;4.698;2022-10-13T13:02:35;101183.72;;;17.51;nan
12054;BME280;5638;50.860;4.698;2022-10-13T13:05:01;101183.88;;;17.48;nan
12054;BME280;5638;50.860;4.698;2022-10-13T13:07:35;101183.34;;;17.38;nan
12054;BME280;5638;50.860;4.698;2022-10-13T13:12:36;101194.66;;;17.15;nan
12054;BME280;5638;50.860;4.698;2022-10-13T13:15:32;101178.50;;;17.04;nan
12054;BME280;5638;50.860;4.698;2022-10-13T13:18:41;101170.06;;;16.96;nan
12054;BME280;5638;50.860;4.698;2022-10-13T13:21:16;101171.56;;;17.03;nan
12054;BME280;5638;50.860;4.698;2022-10-13T13:23:46;101178.72;;;16.98;nan
12054;BME280;5638;50.860;4.698;2022-10-13T13:26:20;101180.63;;;16.92;nan
12054;BME280;5638;50.860;4.698;2022-10-13T13:28:53;101182.53;;;16.89;nan
12054;BME280;5638;50.860;4.698;2022-10-13T13:31:23;101185.22;;;16.86;nan
12054;BME280;5638;50.860;4.698;2022-10-13T13:33:49;101184.88;;;16.70;nan
12054;BME280;5638;50.860;4.698;2022-10-13T13:36:20;101191.00;;;16.69;nan
12054;BME280;5638;50.860;4.698;2022-10-13T13:38:48;101187.75;;;16.62;nan
12054;BME280;5638;50.860;4.698;2022-10-13T13:41:15;101188.66;;;16.61;nan
12054;BME280;5638;50.860;4.698;2022-10-13T13:43:42;101178.13;;;16.64;nan
12054;BME280;5638;50.860;4.698;2022-10-13T13:46:21;101179.88;;;16.64;nan
12054;BME280;5638;50.860;4.698;2022-10-13T13:48:48;101180.81;;;16.61;nan
12054;BME280;5638;50.860;4.698;2022-10-13T13:51:15;101182.75;;;16.56;nan
12054;BME280;5638;50.860;4.698;2022-10-13T13:53:41;101182.00;;;16.53;nan
12054;BME280;5638;50.860;4.698;2022-10-13T13:56:16;101194.94;;;16.56;nan
12054;BME280;5638;50.860;4.698;2022-10-13T13:58:43;101191.00;;;16.44;nan
12054;BME280;5638;50.860;4.698;2022-10-13T14:01:10;101180.69;;;16.39;nan
12054;BME280;5638;50.860;4.698;2022-10-13T14:03:37;101177.44;;;16.33;nan
12054;BME280;5638;50.860;4.698;2022-10-13T14:06:03;101198.31;;;16.33;nan
12054;BME280;5638;50.860;4.698;2022-10-13T14:08:31;101188.25;;;16.22;nan
12054;BME280;5638;50.860;4.698;2022-10-13T14:10:58;101164.41;;;16.05;nan
12054;BME280;5638;50.860;4.698;2022-10-13T14:13:24;101188.50;;;16.13;nan
12054;BME280;5638;50.860;4.698;2022-10-13T14:15:58;101182.72;;;16.03;nan
12054;BME280;5638;50.860;4.698;2022-10-13T14:18:24;101176.56;;;16.06;nan
12054;BME280;5638;50.860;4.698;2022-10-13T14:20:50;101178.34;;;16.05;nan
12054;BME280;5638;50.860;4.698;2022-10-13T14:23:16;101162.31;;;15.89;nan
12054;BME280;5638;50.860;4.698;2022-10-13T14:25:42;101184.66;;;15.98;nan
12054;BME280;5638;50.860;4.698;2022-10-13T14:28:08;101176.81;;;15.98;nan
12054;BME280;5638;50.860;4.698;2022-10-13T14:30:37;101182.81;;;16.00;nan
12054;BME280;5638;50.860;4.698;2022-10-13T14:33:03;101177.56;;;16.02;nan
12054;BME280;5638;50.860;4.698;2022-10-13T14:35:29;101180.06;;;16.05;nan
12054;BME280;5638;50.860;4.698;2022-10-13T14:37:55;101177.44;;;16.06;nan
12054;BME280;5638;50.860;4.698;2022-10-13T14:40:21;101168.91;;;16.01;nan
12054;BME280;5638;50.860;4.698;2022-10-13T14:42:47;101155.78;;;16.03;nan
12054;BME280;5638;50.860;4.698;2022-10-13T14:45:13;101155.97;;;15.97;nan
12054;BME280;5638;50.860;4.698;2022-10-13T14:47:40;101162.06;;;15.97;nan
12054;BME280;5638;50.860;4.698;2022-10-13T14:50:07;101162.84;;;15.99;nan
12054;BME280;5638;50.860;4.698;2022-10-13T14:52:33;101154.09;;;16.02;nan
12054;BME280;5638;50.860;4.698;2022-10-13T14:54:59;101164.22;;;16.11;nan
12054;BME280;5638;50.860;4.698;2022-10-13T14:57:25;101139.44;;;15.98;nan
12054;BME280;5638;50.860;4.698;2022-10-13T14:59:50;101160.06;;;16.05;nan
12054;BME280;5638;50.860;4.698;2022-10-13T15:02:16;101175.56;;;16.10;nan
12054;BME280;5638;50.860;4.698;2022-10-13T15:04:42;101163.69;;;16.01;nan
12054;BME280;5638;50.860;4.698;2022-10-13T15:07:08;101168.00;;;16.01;nan
12054;BME280;5638;50.860;4.698;2022-10-13T15:09:34;101159.56;;;15.92;nan
12054;BME280;5638;50.860;4.698;2022-10-13T15:11:59;101164.63;;;15.99;nan
12054;BME280;5638;50.860;4.698;2022-10-13T15:14:25;101151.66;;;15.96;nan
12054;BME280;5638;50.860;4.698;2022-10-13T15:16:51;101169.63;;;16.05;nan
12054;BME280;5638;50.860;4.698;2022-10-13T15:19:17;101168.63;;;16.09;nan